Warning: fopen(/var/www/metroair/shared/private/wxdata/metar/AVWX/metar_KAMA): failed to open stream: Permission denied in /var/www/metroair/shared/private/library/orig_library/lib_airport.php on line 346

Warning: fwrite() expects parameter 1 to be resource, boolean given in /var/www/metroair/shared/private/library/orig_library/lib_airport.php on line 347

Warning: fclose() expects parameter 1 to be resource, boolean given in /var/www/metroair/shared/private/library/orig_library/lib_airport.php on line 348

Warning: fopen(/var/www/metroair/shared/private/wxdata/TAF/AVWX/taf_KAMA): failed to open stream: Permission denied in /var/www/metroair/shared/private/library/orig_library/lib_airport.php on line 533

Warning: fwrite() expects parameter 1 to be resource, boolean given in /var/www/metroair/shared/private/library/orig_library/lib_airport.php on line 534

Warning: fclose() expects parameter 1 to be resource, boolean given in /var/www/metroair/shared/private/library/orig_library/lib_airport.php on line 535

MET2565 - Kansas City to Amarillo

Bombardier Dash-8-Q200
837AG
1 hr 45 mins
414 nm
Scheduled - Daily

Bid/PiRep Status

Bid was submitted on Oct 03 2016.

PiRep # 73559: Approved by Dave Nichols on October 5th, 2016 2:32 UTC

Departure

Departing from
Kansas City (MCI)
Departure gate
Scheduled Departure
GMT 1810
Local 1210
METAR KMCI 170153Z 24009KT 10SM OVC007 04/04 A2990 RMK AO2 RAE09 SLP128 P0000 T00440039 $
TAF KMCI 162328Z 1700/1724 23010KT 6SM -SHRA BR SCT015 OVC035 TEMPO 1700/1703 4SM BR OVC020 FM170300 25008KT 5SM BR OVC008 FM170500 28007KT 3SM BR OVC003 FM171500 30007KT P6SM OVC005 FM171800 29008KT P6SM BKN010
  • No charts available

Arrival

Arriving at
Amarillo (AMA)
Arrival gate
A2
Scheduled Arrival
GMT 1955
Local 1355
METAR KAMA 170153Z 33012KT 10SM OVC017 03/01 A3009 RMK AO2 SLP195 T00330006
TAF KAMA 162322Z 1700/1724 32011KT P6SM OVC020 FM170800 32009KT P6SM SCT035 BKN060 FM171300 32006KT P6SM SCT060 SCT200

Route Map

Planning Resources

FRACA,ICT,GAG, KAMA
WLDCT2 V12 PNH
WLDCT2.ICT J26 PNH
KMCI KENTN ICT ZENDA GAG PNH KAMA
FRACA ICT GAG PNH KAMA
Route:
OFP Layout:
Units:
Detailed Navlog:
ETOPS Planning:
Plan Stepclimbs:
Runway Analysis:
Include NOTAMS:
FIR NOTAMS:
Flight Maps:

Return Flights

MET2564
Bombardier Dash-8-Q200
1405 GMT
MET2566
Bombardier Dash-8-Q200
2015 GMT
MET2568
Bombardier Dash-8-Q200
0115 GMT

Popularity

Hub Current Bids PiReps this month Total PiReps
KMCI 0 0 13
KLAX 0 0 1
KBOS 0 0 0